Latest Weather Observations for Gladstone

IDQ60801

Issued at 12:05 pm EST Thursday 2 October 2014 (issued every 30 minutes, with the page automatically refreshed every 10 minutes)

About weather observations | Map of weather stations | Latest weather observations for QLD | Other Formats
Station Details ID: 039123 Name: GLADSTONE RADAR Lat: -23.86 Lon: 151.26 Height: 74.5 m
Data from the previous 72 hours. | See also: Recent months at Gladstone
Date/Time
EST
Temp
°C
App
Temp
°C
Dew
Point
Rel
Hum
%
Delta-T
°C
Wind Press
QNH
hPa
Press
MSL
hPa
Rain
since 9 am
mm
Dir
 
Spd
km/h
Gust
km/h
Spd
kts
Gust
kts
02/12:00pm 27.5 26.1 18.8 59 5.6 ENE 24 35 13 19 1018.4 1018.1 0.0
02/11:30am 26.8 24.6 17.0 55 6.1 E 24 32 13 17 1018.8 1018.5 0.0
02/11:00am 26.6 24.7 16.8 55 6.1 E 22 37 12 20 1019.1 1018.8 0.0
02/10:30am 26.5 25.2 18.1 60 5.3 E 22 35 12 19 1019.5 1019.1 0.0
02/10:00am 25.0 21.8 16.2 58 5.4 E 28 39 15 21 1019.6 1019.2 0.0
02/09:30am 24.8 22.6 16.8 61 4.9 E 24 35 13 19 1019.7 1019.3 0.0
02/09:00am 24.2 22.7 17.7 67 4.1 ESE 22 33 12 18 1019.8 1019.4 0.0
02/08:30am 22.9 23.2 17.8 73 3.2 ESE 13 20 7 11 1019.9 1019.5 0.0
02/08:00am 21.8 20.6 17.6 77 2.6 ESE 20 35 11 19 1019.9 1019.5 0.0
02/07:30am 20.9 19.7 17.1 79 2.3 ESE 19 32 10 17 1019.6 1019.2 0.0
02/07:00am 20.5 19.1 16.9 80 2.2 SE 20 32 11 17 1019.1 1018.8 0.0
02/06:30am 19.8 17.9 16.8 83 1.8 SE 22 35 12 19 1018.6 1018.3 0.0
02/06:00am 19.0 16.5 16.2 84 1.7 SE 24 35 13 19 1018.1 1017.8 0.0
02/05:30am 18.8 16.6 16.0 84 1.7 SE 22 33 12 18 1017.8 1017.5 0.0
02/05:00am 18.8 15.9 16.0 84 1.7 SE 26 39 14 21 1017.5 1017.2 0.0
02/04:37am 18.9 15.6 16.1 84 1.7 SE 28 46 15 25 1017.1 1016.8 0.0
02/04:30am 18.7 16.1 15.9 84 1.7 SE 24 39 13 21 1017.0 1016.7 0.0
02/04:00am 18.3 16.7 15.0 81 1.9 SSE 17 28 9 15 1016.8 1016.5 0.0
02/03:30am 18.2 17.8 15.1 82 1.8 S 11 20 6 11 1016.2 1015.9 0.0
02/03:00am 17.9 18.1 14.6 81 1.9 SW 7 9 4 5 1015.5 1015.2 0.0
02/02:30am 17.9 18.1 14.6 81 1.9 WNW 7 9 4 5 1015.5 1015.2 0.0
02/02:00am 18.8 19.5 14.5 76 2.5 SSE 4 7 2 4 1015.6 1015.3 0.0
02/01:30am 19.3 19.5 14.8 75 2.6 E 7 9 4 5 1015.8 1015.5 0.0
02/01:00am 19.2 19.7 15.1 77 2.4 S 6 19 3 10 1016.0 1015.7 0.0
02/12:30am 18.4 19.2 15.8 85 1.5 SW 6 11 3 6 1016.5 1016.2 0.0
02/12:00am 18.6 19.3 15.5 82 1.8 SW 6 7 3 4 1016.2 1015.9 0.0
 
Date/Time
EST
Temp
°C
App
Temp
°C
Dew
Point
Rel
Hum
%
Delta-T
°C
Wind Press
QNH
hPa
Press
MSL
hPa
Rain
since 9 am
mm
Dir
 
Spd
km/h
Gust
km/h
Spd
kts
Gust
kts
01/11:30pm 19.5 19.8 16.0 80 2.1 NW 9 11 5 6 1016.1 1015.8 0.0
01/11:00pm 19.6 20.2 15.7 78 2.3 NW 7 9 4 5 1016.2 1015.9 0.0
01/10:30pm 19.8 20.0 15.7 77 2.4 NW 9 11 5 6 1016.2 1015.9 0.0
01/10:00pm 20.0 20.1 15.6 76 2.6 NW 9 11 5 6 1016.1 1015.8 0.0
01/09:30pm 20.3 19.6 15.3 73 3.0 NNW 13 19 7 10 1016.2 1015.9 0.0
01/09:00pm 20.3 19.9 15.1 72 3.1 NW 11 19 6 10 1016.3 1016.0 0.0
01/08:30pm 20.5 20.1 15.1 71 3.2 NW 11 17 6 9 1016.3 1016.0 0.0
01/08:00pm 20.7 20.5 14.8 69 3.5 NW 9 15 5 8 1016.3 1016.0 0.0
01/07:30pm 20.9 20.3 14.5 67 3.8 NW 11 17 6 9 1016.3 1016.0 0.0
01/07:00pm 21.0 20.3 14.2 65 4.0 NNW 11 19 6 10 1016.0 1015.7 0.0
01/06:30pm 21.1 20.8 14.3 65 4.0 N 9 15 5 8 1015.7 1015.4 0.0
01/06:00pm 21.5 20.8 14.2 63 4.3 N 11 20 6 11 1015.6 1015.3 0.0
01/05:30pm 22.1 20.8 13.7 59 4.9 N 13 22 7 12 1015.2 1014.9 0.0
01/05:00pm 22.7 21.4 13.7 56 5.2 NNE 13 26 7 14 1015.1 1014.8 0.0
01/04:30pm 23.4 21.9 14.1 56 5.5 NNE 15 22 8 12 1015.1 1014.8 0.0
01/04:00pm 23.9 22.0 14.3 55 5.7 NNE 17 32 9 17 1015.1 1014.8 0.0
01/03:30pm 24.3 22.3 13.8 52 6.2 NNE 17 30 9 16 1015.1 1014.8 0.0
01/03:00pm 25.2 23.2 14.0 49 6.6 NE 17 35 9 19 1015.4 1015.1 0.0
01/02:30pm 25.7 24.2 15.4 53 6.3 NE 17 28 9 15 1015.6 1015.3 0.0
01/02:00pm 25.6 23.6 15.0 52 6.4 NE 19 32 10 17 1015.9 1015.6 0.0
01/01:30pm 26.6 25.0 15.0 49 7.0 NE 17 28 9 15 1016.2 1015.9 0.0
01/01:00pm 26.4 24.6 14.5 48 7.1 NE 17 28 9 15 1016.7 1016.4 0.0
01/12:30pm 26.9 25.5 15.6 50 6.9 NNE 17 28 9 15 1017.1 1016.8 0.0
01/12:00pm 26.3 24.6 14.7 48 7.0 NE 17 24 9 13 1017.6 1017.3 0.0
01/11:30am 26.9 26.1 15.0 48 7.2 NE 13 22 7 12 1018.4 1018.1 0.0
01/11:00am 27.5 27.2 14.5 45 7.8 N 9 17 5 9 1018.9 1018.6 0.0
01/10:30am 26.2 26.4 14.6 48 7.0 N 7 17 4 9 1019.4 1019.0 0.0
01/10:00am 25.5 25.0 12.7 45 7.4 NNE 7 15 4 8 1019.7 1019.3 0.0
01/09:30am 23.3 22.1 11.7 48 6.6 WNW 9 17 5 9 1020.0 1019.7 0.0
01/09:00am 22.2 21.3 12.7 55 5.4 WNW 9 19 5 10 1019.9 1019.6 0.0
01/08:30am 21.6 21.2 13.0 58 4.9 W 7 13 4 7 1020.0 1019.7 0.0
01/08:00am 20.3 20.2 13.3 64 4.0 W 6 15 3 8 1019.9 1019.6 0.0
01/07:30am 19.2 19.3 13.8 71 3.1 WSW 6 11 3 6 1020.1 1019.8 0.0
01/07:00am 18.1 18.1 13.6 75 2.6 WSW 6 9 3 5 1019.8 1019.5 0.0
01/06:30am 17.3 17.0 13.2 77 2.3 WSW 7 11 4 6 1019.5 1019.2 0.0
01/06:00am 17.1 16.5 13.4 79 2.1 WSW 9 11 5 6 1019.4 1019.1 0.0
01/05:30am 17.1 16.4 13.2 78 2.2 WNW 9 11 5 6 1019.1 1018.9 0.0
01/05:00am 17.1 16.3 13.0 77 2.3 W 9 9 5 5 1019.0 1018.8 0.0
01/04:30am 17.3 16.7 13.6 79 2.1 W 9 9 5 5 1019.0 1018.8 0.0
01/04:00am 17.3 17.1 13.6 79 2.1 WNW 7 11 4 6 1018.7 1018.5 0.0
01/03:30am 17.4 17.2 13.5 78 2.2 W 7 9 4 5 1018.7 1018.5 0.0
01/03:00am 17.4 16.7 13.3 77 2.3 W 9 11 5 6 1018.8 1018.6 0.0
01/02:30am 17.6 16.9 13.3 76 2.4 W 9 11 5 6 1018.9 1018.7 0.0
01/02:00am 17.9 17.6 13.4 75 2.5 W 7 9 4 5 1019.1 1018.9 0.0
01/01:30am 18.2 18.0 13.5 74 2.7 WNW 7 9 4 5 1019.4 1019.1 0.0
01/01:00am 18.4 18.1 13.3 72 2.9 NW 7 9 4 5 1019.6 1019.3 0.0
01/12:30am 18.9 18.2 13.3 70 3.2 NNW 9 13 5 7 1019.8 1019.5 0.0
01/12:00am 19.2 18.6 13.4 69 3.3 NNW 9 13 5 7 1019.9 1019.6 0.0
 
Date/Time
EST
Temp
°C
App
Temp
°C
Dew
Point
Rel
Hum
%
Delta-T
°C
Wind Press
QNH
hPa
Press
MSL
hPa
Rain
since 9 am
mm
Dir
 
Spd
km/h
Gust
km/h
Spd
kts
Gust
kts
30/11:30pm 19.0 18.4 13.6 71 3.1 N 9 11 5 6 1020.2 1019.9 0.0
30/11:00pm 18.9 18.1 12.9 68 3.4 N 9 13 5 7 1020.3 1020.0 0.0
30/10:30pm 19.1 18.4 13.3 69 3.3 N 9 15 5 8 1020.3 1020.0 0.0
30/10:00pm 18.9 18.5 13.1 69 3.3 N 7 11 4 6 1020.4 1020.1 0.0
30/09:30pm 19.0 18.1 12.7 67 3.5 NNE 9 17 5 9 1020.3 1020.0 0.0
30/09:00pm 19.3 18.4 12.6 65 3.8 NNE 9 15 5 8 1020.3 1020.0 0.0
30/08:30pm 19.4 18.6 12.9 66 3.7 NE 9 15 5 8 1020.3 1020.0 0.0
30/08:00pm 19.4 18.3 13.1 67 3.6 NE 11 17 6 9 1020.1 1019.8 0.0
30/07:30pm 19.5 18.7 13.9 70 3.2 NE 11 15 6 8 1019.7 1019.4 0.0
30/07:00pm 19.7 18.5 14.1 70 3.2 NE 13 19 7 10 1019.2 1019.0 0.0
30/06:30pm 20.1 19.1 14.5 70 3.3 NE 13 22 7 12 1018.8 1018.6 0.0
30/06:00pm 20.6 19.3 14.7 69 3.5 NE 15 22 8 12 1018.4 1018.2 0.0
30/05:30pm 21.3 20.0 14.7 66 3.9 NE 15 24 8 13 1018.2 1018.0 0.0
30/05:00pm 21.7 19.5 14.4 63 4.3 NE 19 26 10 14 1017.9 1017.7 0.0
30/04:30pm 22.9 20.6 14.2 58 5.1 NE 19 28 10 15 1017.8 1017.6 0.0
30/04:00pm 23.7 22.2 14.1 55 5.6 NE 15 22 8 12 1017.7 1017.5 0.0
30/03:30pm 24.3 22.9 14.4 54 5.9 NE 15 22 8 12 1017.8 1017.6 0.0
30/03:00pm 25.1 23.7 14.6 52 6.3 NE 15 22 8 12 1018.0 1017.8 0.0
30/02:30pm 25.1 23.9 13.9 49 6.6 NNE 13 19 7 10 1018.3 1018.1 0.0
30/02:00pm 26.3 26.2 15.0 49 6.8 NE 9 20 5 11 1018.6 1018.4 0.0
30/01:30pm 26.4 25.9 13.9 46 7.4 NE 9 17 5 9 1019.1 1018.9 0.0
30/01:00pm 26.5 26.0 13.9 45 7.5 NNE 9 17 5 9 1019.6 1019.3 0.0
30/12:30pm 26.0 25.2 14.1 47 7.1 NE 11 19 6 10 1019.9 1019.6 0.0
30/12:00pm 26.9 26.2 14.3 46 7.5 NE 11 19 6 10 1020.5 1020.2 0.0
30/11:30am 25.8 24.1 12.6 44 7.7 NE 13 19 7 10 1020.9 1020.6 0.0
30/11:00am 26.0 24.3 12.5 43 7.8 NE 13 19 7 10 1021.4 1021.1 0.0
30/10:30am 25.8 24.3 13.0 45 7.5 NE 13 20 7 11 1021.7 1021.4 0.0
30/10:00am 25.3 24.5 14.1 50 6.6 NE 11 19 6 10 1021.9 1021.6 0.0
30/09:30am 24.8 24.8 15.1 54 5.8 NE 9 19 5 10 1022.0 1021.7 0.0
30/09:00am 23.7 23.2 13.8 53 5.8 NE 9 15 5 8 1021.9 1021.6 0.0
30/08:30am 22.8 22.9 14.4 59 5.0 NE 7 13 4 7 1021.8 1021.5 0.0
30/08:00am 21.0 22.2 14.9 68 3.6 E 2 7 1 4 1021.5 1021.2 0.0
30/07:30am 20.0 21.4 15.4 75 2.7 ENE 2 6 1 3 1021.3 1021.0 0.0
30/07:00am 18.6 20.0 14.3 76 2.5 CALM 0 6 0 3 1021.1 1020.8 0.0
30/06:30am 17.9 18.0 14.0 78 2.2 S 6 9 3 5 1020.9 1020.6 0.0
30/06:00am 17.5 17.4 13.8 79 2.1 S 7 7 4 4 1020.5 1020.2 0.0
30/05:30am 17.3 17.1 13.6 79 2.1 S 7 9 4 5 1020.2 1019.9 0.0
30/05:00am 17.4 17.2 13.7 79 2.1 SSE 7 9 4 5 1020.0 1019.7 0.0
30/04:30am 17.7 17.6 14.0 79 2.1 SSE 7 9 4 5 1019.7 1019.4 0.0
30/04:00am 17.2 17.2 14.1 82 1.8 S 7 9 4 5 1019.5 1019.2 0.0
30/03:30am 16.9 16.4 13.8 82 1.8 S 9 13 5 7 1019.4 1019.1 0.0
30/03:00am 17.1 16.5 13.6 80 2.0 S 9 13 5 7 1019.4 1019.1 0.0
30/02:30am 17.9 17.4 13.8 77 2.3 SSE 9 11 5 6 1019.4 1019.1 0.0
30/02:00am 18.1 18.2 13.8 76 2.5 SE 6 7 3 4 1019.6 1019.3 0.0
30/01:30am 18.3 18.2 13.8 75 2.6 ESE 7 7 4 4 1019.7 1019.4 0.0
30/01:00am 18.2 18.0 13.7 75 2.6 E 7 11 4 6 1019.9 1019.6 0.0
30/12:30am 18.3 18.2 13.8 75 2.6 ENE 7 9 4 5 1020.1 1019.8 0.0
30/12:00am 18.5 18.0 13.8 74 2.7 E 9 11 5 6 1020.1 1019.8 0.0
 
Date/Time
EST
Temp
°C
App
Temp
°C
Dew
Point
Rel
Hum
%
Delta-T
°C
Wind Press
QNH
hPa
Press
MSL
hPa
Rain
since 9 am
mm
Dir
 
Spd
km/h
Gust
km/h
Spd
kts
Gust
kts
29/11:30pm 18.4 17.9 13.7 74 2.7 ENE 9 11 5 6 1020.5 1020.2 0.0
29/11:00pm 18.8 18.0 13.9 73 2.8 ENE 11 13 6 7 1020.6 1020.3 0.0
29/10:30pm 18.9 18.0 13.7 72 3.0 ENE 11 17 6 9 1020.6 1020.3 0.0
29/10:00pm 19.0 17.9 13.2 69 3.3 ENE 11 17 6 9 1020.8 1020.5 0.0
29/09:30pm 19.0 17.2 13.2 69 3.3 ENE 15 20 8 11 1020.8 1020.5 0.0
29/09:00pm 18.9 18.0 13.7 72 3.0 ENE 11 17 6 9 1020.7 1020.4 0.0
29/08:30pm 19.1 17.9 13.9 72 3.0 ENE 13 19 7 10 1020.4 1020.1 0.0
29/08:00pm 19.3 18.6 14.3 73 2.9 NE 11 17 6 9 1020.2 1019.9 0.0
29/07:30pm 19.3 18.8 15.0 76 2.5 ENE 11 15 6 8 1020.0 1019.7 0.0
29/07:00pm 19.6 18.4 15.0 75 2.7 ENE 15 20 8 11 1019.7 1019.4 0.0
29/06:30pm 19.8 18.6 15.0 74 2.8 ENE 15 20 8 11 1019.4 1019.1 0.0
29/06:00pm 20.2 18.5 14.6 70 3.3 ENE 17 24 9 13 1018.8 1018.6 0.0
29/05:30pm 20.9 18.7 14.5 67 3.8 ENE 19 24 10 13 1018.5 1018.3 0.0
29/05:00pm 21.4 19.9 14.3 64 4.1 ENE 15 24 8 13 1018.3 1018.1 0.0
29/04:30pm 22.5 21.0 14.1 59 4.9 NE 15 24 8 13 1018.0 1017.8 0.0
29/04:00pm 23.0 21.1 14.3 58 5.1 NE 17 22 9 12 1017.8 1017.6 0.0
29/03:30pm 23.6 21.6 13.8 54 5.7 NE 17 26 9 14 1017.9 1017.7 0.0
29/03:00pm 24.3 21.6 13.5 51 6.3 ENE 20 30 11 16 1017.8 1017.6 0.0
29/02:30pm 24.5 21.9 13.7 51 6.3 ENE 20 28 11 15 1018.2 1018.0 0.0
29/02:00pm 25.1 23.0 14.6 52 6.3 NE 19 26 10 14 1018.3 1018.1 0.0
29/01:30pm 25.9 24.3 15.9 54 6.1 ENE 19 24 10 13 1018.7 1018.5 0.0
29/01:00pm 25.8 23.7 15.2 52 6.4 ENE 20 30 11 16 1019.1 1018.9 0.0
29/12:30pm 25.2 22.9 14.6 51 6.3 ENE 20 28 11 15 1019.5 1019.2 0.0

Other Formats:

Comma delimited format used in spreadsheet applications
http://www.bom.gov.au/fwo/IDQ60801/IDQ60801.94380.axf

JavaScript Object Notation format (JSON) in row-major order
http://www.bom.gov.au/fwo/IDQ60801/IDQ60801.94380.json